createdAt,value
2019-01-16T00:00:14.046Z,6.57
2019-01-16T00:02:43.923Z,3.77
2019-01-16T00:05:13.825Z,7.70
2019-01-16T00:07:46.220Z,6.00
2019-01-16T00:10:18.855Z,4.60
2019-01-16T00:12:49.056Z,4.63
2019-01-16T00:15:34.365Z,4.80
2019-01-16T00:18:20.312Z,7.13
2019-01-16T00:21:02.307Z,9.40
2019-01-16T00:23:37.903Z,7.07
2019-01-16T00:26:07.810Z,6.60
2019-01-16T00:28:53.924Z,8.70
2019-01-16T00:31:32.803Z,5.30
2019-01-16T00:34:20.551Z,5.90
2019-01-16T00:37:02.431Z,4.67
2019-01-16T00:39:38.348Z,5.10
2019-01-16T00:42:24.381Z,4.60
2019-01-16T00:44:57.219Z,6.20
2019-01-16T00:47:33.136Z,7.27
2019-01-16T00:50:18.094Z,6.20
2019-01-16T00:52:50.602Z,6.20
2019-01-16T00:55:26.252Z,3.77
2019-01-16T00:57:59.097Z,6.40
2019-01-16T01:00:37.725Z,11.53
2019-01-16T01:03:13.301Z,6.70
2019-01-16T01:05:54.940Z,5.03
2019-01-16T01:08:39.688Z,11.00
2019-01-16T01:11:15.501Z,5.30
2019-01-16T01:13:45.442Z,6.00
2019-01-16T01:16:15.338Z,8.60
2019-01-16T01:19:01.301Z,5.80
2019-01-16T01:21:39.982Z,7.23
2019-01-16T01:24:21.586Z,5.13
2019-01-16T01:27:00.216Z,4.47
2019-01-16T01:29:32.801Z,5.53
2019-01-16T01:32:02.706Z,5.67
2019-01-16T01:34:38.485Z,7.03
2019-01-16T01:37:17.866Z,5.83
2019-01-16T01:39:50.785Z,7.53
2019-01-16T01:42:37.005Z,6.37
2019-01-16T01:45:25.636Z,9.53
2019-01-16T01:48:07.322Z,6.63
2019-01-16T01:50:37.206Z,5.83
2019-01-16T01:53:16.091Z,4.67
2019-01-16T01:55:48.671Z,5.87
2019-01-16T01:58:24.327Z,7.40
2019-01-16T02:01:00.004Z,5.60
2019-01-16T02:03:39.016Z,8.80
2019-01-16T02:06:20.999Z,9.03
2019-01-16T02:08:53.615Z,7.47
2019-01-16T02:11:23.512Z,9.57
2019-01-16T02:14:11.531Z,11.97
2019-01-16T02:16:44.133Z,9.63
2019-01-16T02:19:31.970Z,7.27
2019-01-16T02:22:13.614Z,12.93
2019-01-16T02:24:52.495Z,11.13
2019-01-16T02:27:31.239Z,13.00
2019-01-16T02:30:17.162Z,10.60
2019-01-16T02:32:47.345Z,9.23
2019-01-16T02:35:33.299Z,11.77
2019-01-16T02:38:19.488Z,11.57
2019-01-16T02:41:04.591Z,8.17
2019-01-16T02:43:40.578Z,8.97
2019-01-16T02:46:13.190Z,8.30
2019-01-16T02:48:56.225Z,9.57
2019-01-16T02:51:32.348Z,9.90
2019-01-16T02:54:17.304Z,8.23
2019-01-16T02:56:50.254Z,15.47
2019-01-16T02:59:20.425Z,9.77
2019-01-16T03:01:50.306Z,9.37
2019-01-16T03:04:20.217Z,7.37
2019-01-16T03:06:53.092Z,10.70
2019-01-16T03:09:25.957Z,11.13
2019-01-16T03:11:58.835Z,7.30
2019-01-16T03:14:28.742Z,6.53
2019-01-16T03:17:13.658Z,10.20
2019-01-16T03:19:43.565Z,11.83
2019-01-16T03:22:13.441Z,8.83
2019-01-16T03:25:01.788Z,11.40
2019-01-16T03:27:40.439Z,9.93
2019-01-16T03:30:11.689Z,8.13
2019-01-16T03:32:44.285Z,6.23
2019-01-16T03:35:17.143Z,7.93
2019-01-16T03:37:47.018Z,7.03
2019-01-16T03:40:19.312Z,10.77
2019-01-16T03:42:49.216Z,8.83
2019-01-16T03:45:19.121Z,6.30
2019-01-16T03:48:05.032Z,9.73
2019-01-16T03:50:34.930Z,7.07
2019-01-16T03:53:21.475Z,7.60
2019-01-16T03:55:54.567Z,10.40
2019-01-16T03:58:24.448Z,7.97
2019-01-16T04:00:54.355Z,4.93
2019-01-16T04:03:29.948Z,7.23
2019-01-16T04:06:08.652Z,7.10
2019-01-16T04:08:38.616Z,6.33
2019-01-16T04:11:08.800Z,6.50
2019-01-16T04:13:38.698Z,7.10
2019-01-16T04:16:11.263Z,6.07
2019-01-16T04:18:49.861Z,7.37
2019-01-16T04:21:36.095Z,7.80
2019-01-16T04:24:21.100Z,7.37
2019-01-16T04:26:59.965Z,9.10
2019-01-16T04:29:29.845Z,10.10
2019-01-16T04:32:08.701Z,6.33
2019-01-16T04:34:38.583Z,7.93
2019-01-16T04:37:11.439Z,5.70
2019-01-16T04:39:47.423Z,5.67
2019-01-16T04:42:23.144Z,10.30
2019-01-16T04:44:58.864Z,7.03
2019-01-16T04:47:44.915Z,5.43
2019-01-16T04:50:31.109Z,8.10
2019-01-16T04:53:04.049Z,7.23
2019-01-16T04:55:51.153Z,7.23
2019-01-16T04:58:23.854Z,7.83
2019-01-16T05:00:53.736Z,10.27
2019-01-16T05:03:23.650Z,8.17
2019-01-16T05:05:53.828Z,6.77
2019-01-16T05:08:39.783Z,7.93
2019-01-16T05:11:12.914Z,6.67
2019-01-16T05:13:59.111Z,8.27
2019-01-16T05:16:45.102Z,7.57
2019-01-16T05:19:38.387Z,7.17
2019-01-16T05:22:02.938Z,8.60
2019-01-16T05:24:35.752Z,9.60
2019-01-16T05:27:08.782Z,10.13
2019-01-16T05:29:47.714Z,6.53
2019-01-16T05:32:17.630Z,10.17
2019-01-16T05:34:47.585Z,7.40
2019-01-16T05:37:23.295Z,5.83
2019-01-16T05:39:53.174Z,10.00
2019-01-16T05:42:41.206Z,8.10
2019-01-16T05:45:17.070Z,9.13
2019-01-16T05:47:46.985Z,7.13
2019-01-16T05:50:28.689Z,6.23
2019-01-16T05:53:14.597Z,5.97
2019-01-16T05:56:00.915Z,5.53
2019-01-16T05:58:30.813Z,8.90
2019-01-16T06:01:03.664Z,8.50
2019-01-16T06:03:48.517Z,11.23
2019-01-16T06:06:24.065Z,9.73
2019-01-16T06:09:09.151Z,8.57
2019-01-16T06:11:47.787Z,10.60
2019-01-16T06:14:20.866Z,6.73
2019-01-16T06:17:06.843Z,9.30
2019-01-16T06:19:37.055Z,7.43
2019-01-16T06:22:15.691Z,12.57
2019-01-16T06:24:54.491Z,7.80
2019-01-16T06:27:30.051Z,8.43
2019-01-16T06:30:02.931Z,6.77
2019-01-16T06:32:38.757Z,11.03
2019-01-16T06:35:25.002Z,7.13
2019-01-16T06:38:00.979Z,12.57
2019-01-16T06:40:30.888Z,9.30
2019-01-16T06:43:04.500Z,8.53
2019-01-16T06:45:48.041Z,6.60
2019-01-16T06:48:23.905Z,7.47
2019-01-16T06:50:53.900Z,9.00
2019-01-16T06:53:23.799Z,8.23
2019-01-16T06:55:59.768Z,7.73
2019-01-16T06:58:32.532Z,8.33
2019-01-16T07:01:08.539Z,8.20
2019-01-16T07:03:56.324Z,7.33
2019-01-16T07:06:30.468Z,7.93
2019-01-16T07:09:16.264Z,7.20
2019-01-16T07:11:46.148Z,10.13
2019-01-16T07:14:21.959Z,10.80
2019-01-16T07:16:55.075Z,6.83
2019-01-16T07:19:28.205Z,10.33
2019-01-16T07:22:07.078Z,8.70
2019-01-16T07:24:40.305Z,6.20
2019-01-16T07:27:13.122Z,12.03
2019-01-16T07:29:59.124Z,12.77
2019-01-16T07:32:29.007Z,9.97
2019-01-16T07:35:15.359Z,5.73
2019-01-16T07:37:51.769Z,10.13
2019-01-16T07:40:40.023Z,13.17
2019-01-16T07:43:18.962Z,9.27
2019-01-16T07:45:51.587Z,6.00
2019-01-16T07:48:31.517Z,8.47
2019-01-16T07:51:18.625Z,6.40
2019-01-16T07:53:48.623Z,6.90
2019-01-16T07:56:19.407Z,14.07
2019-01-16T07:58:58.266Z,10.17
2019-01-16T08:01:35.847Z,7.50
2019-01-16T08:04:21.902Z,11.67
2019-01-16T08:07:11.563Z,6.23
2019-01-16T08:09:50.232Z,12.30
2019-01-16T08:12:26.058Z,11.73
2019-01-16T08:15:13.751Z,7.50
2019-01-16T08:17:43.915Z,10.03
2019-01-16T08:20:16.571Z,10.73
2019-01-16T08:22:49.179Z,7.97
2019-01-16T08:25:28.036Z,11.43
2019-01-16T08:27:57.927Z,8.10
2019-01-16T08:30:46.175Z,6.93
2019-01-16T08:33:16.068Z,13.63
2019-01-16T08:35:55.076Z,9.57
2019-01-16T08:38:24.954Z,12.10
2019-01-16T08:41:03.814Z,9.90
2019-01-16T08:43:33.713Z,8.37
2019-01-16T08:46:03.692Z,10.43
2019-01-16T08:48:39.549Z,10.87
2019-01-16T08:51:15.167Z,13.27
2019-01-16T08:53:59.889Z,11.03
2019-01-16T08:56:38.503Z,10.43
2019-01-16T08:59:08.391Z,14.77
2019-01-16T09:01:47.399Z,14.03
2019-01-16T09:04:20.080Z,10.70
2019-01-16T09:07:06.037Z,11.47
2019-01-16T09:09:35.929Z,14.73
2019-01-16T09:12:11.863Z,12.37
2019-01-16T09:14:44.507Z,10.37
2019-01-16T09:17:20.220Z,16.97
2019-01-16T09:19:50.366Z,10.67
2019-01-16T09:22:26.016Z,11.03
2019-01-16T09:24:55.890Z,10.00
2019-01-16T09:27:34.931Z,10.53
2019-01-16T09:30:09.464Z,16.27
2019-01-16T09:32:57.396Z,10.63
2019-01-16T09:35:27.302Z,9.80
2019-01-16T09:37:57.465Z,21.37
2019-01-16T09:40:27.621Z,16.97
2019-01-16T09:43:03.188Z,9.80
2019-01-16T09:45:49.302Z,15.70
2019-01-16T09:48:27.972Z,10.70
2019-01-16T09:50:57.866Z,12.73
2019-01-16T09:53:33.848Z,12.63
2019-01-16T09:56:18.615Z,13.47
2019-01-16T09:59:06.148Z,10.53
2019-01-16T10:01:44.838Z,10.67
2019-01-16T10:04:20.659Z,13.57
2019-01-16T10:06:50.548Z,11.70
2019-01-16T10:09:36.548Z,12.70
2019-01-16T10:12:15.497Z,9.53
2019-01-16T10:14:45.680Z,14.13
2019-01-16T10:17:15.563Z,12.27
2019-01-16T10:19:51.570Z,11.50
2019-01-16T10:22:24.466Z,10.67
2019-01-16T10:24:54.369Z,9.70
2019-01-16T10:27:40.555Z,11.07
2019-01-16T10:30:16.553Z,12.27
2019-01-16T10:32:55.830Z,8.37
2019-01-16T10:35:28.481Z,10.37
2019-01-16T10:38:04.253Z,9.87
2019-01-16T10:40:40.537Z,7.67
2019-01-16T10:43:10.420Z,8.20
2019-01-16T10:45:51.923Z,18.97
2019-01-16T10:48:37.793Z,20.00
2019-01-16T10:51:13.655Z,19.33
2019-01-16T10:53:43.827Z,16.90
2019-01-16T10:56:13.802Z,11.93
2019-01-16T10:58:49.663Z,9.03
2019-01-16T11:01:19.651Z,10.80
2019-01-16T11:04:05.687Z,11.40
2019-01-16T11:06:50.693Z,13.10
2019-01-16T11:09:20.671Z,11.03
2019-01-16T11:11:53.271Z,11.13
2019-01-16T11:14:29.188Z,12.93
2019-01-16T11:17:10.944Z,16.23
2019-01-16T11:19:57.040Z,21.17
2019-01-16T11:22:29.847Z,12.23
2019-01-16T11:25:11.512Z,9.47
2019-01-16T11:27:41.396Z,11.40
2019-01-16T11:30:14.826Z,10.43
2019-01-16T11:32:53.712Z,13.63
2019-01-16T11:35:26.608Z,10.10
2019-01-16T11:38:02.474Z,13.90
2019-01-16T11:40:32.385Z,9.63
2019-01-16T11:43:14.340Z,9.00
2019-01-16T11:45:52.983Z,12.80
2019-01-16T11:48:39.134Z,18.27
2019-01-16T11:51:18.493Z,22.97
2019-01-16T11:53:46.558Z,11.03
2019-01-16T11:56:25.234Z,12.80
2019-01-16T11:59:06.992Z,9.80
2019-01-16T12:01:37.174Z,9.83
2019-01-16T12:04:10.036Z,8.30
2019-01-16T12:06:45.966Z,9.90
2019-01-16T12:09:30.609Z,9.53
2019-01-16T12:12:15.343Z,11.13
2019-01-16T12:15:01.450Z,12.43
2019-01-16T12:17:40.341Z,9.20
2019-01-16T12:20:19.741Z,9.23
2019-01-16T12:22:49.660Z,9.60
2019-01-16T12:25:35.938Z,9.67
2019-01-16T12:28:05.865Z,9.73
2019-01-16T12:30:38.418Z,13.67
2019-01-16T12:33:11.065Z,10.37
2019-01-16T12:35:40.938Z,8.97
2019-01-16T12:38:10.860Z,11.53
2019-01-16T12:40:40.754Z,11.63
2019-01-16T12:43:22.499Z,11.63
2019-01-16T12:45:55.706Z,8.23
2019-01-16T12:48:28.278Z,12.07
2019-01-16T12:51:03.901Z,7.27
2019-01-16T12:53:34.104Z,17.17
2019-01-16T12:56:04.033Z,21.20
2019-01-16T12:58:42.740Z,11.43
2019-01-16T13:01:29.334Z,9.40
2019-01-16T13:04:15.272Z,10.50
2019-01-16T13:06:48.124Z,5.50
2019-01-16T13:09:24.098Z,6.97
2019-01-16T13:11:56.520Z,7.57
2019-01-16T13:14:30.066Z,7.33
2019-01-16T13:16:58.027Z,6.13
2019-01-16T13:19:33.717Z,7.30
2019-01-16T13:22:03.877Z,8.63
2019-01-16T13:24:42.579Z,8.10
2019-01-16T13:27:12.495Z,8.27
2019-01-16T13:29:42.444Z,6.97
2019-01-16T13:32:21.243Z,7.67
2019-01-16T13:34:51.400Z,6.40
2019-01-16T13:37:21.313Z,8.97
2019-01-16T13:40:03.181Z,6.63
2019-01-16T13:42:33.332Z,9.17
2019-01-16T13:45:03.465Z,10.77
2019-01-16T13:47:45.471Z,8.80
2019-01-16T13:50:18.293Z,7.37
2019-01-16T13:53:02.994Z,4.73
2019-01-16T13:55:33.233Z,8.30
2019-01-16T13:58:15.003Z,7.80
2019-01-16T14:00:53.728Z,12.93
2019-01-16T14:03:29.429Z,9.33
2019-01-16T14:06:01.973Z,7.60
2019-01-16T14:08:43.926Z,5.53
2019-01-16T14:11:22.668Z,5.70
2019-01-16T14:14:00.599Z,9.57
2019-01-16T14:16:27.247Z,8.77
2019-01-16T14:18:59.935Z,8.30
2019-01-16T14:21:32.858Z,7.30
2019-01-16T14:24:08.820Z,22.93
2019-01-16T14:26:55.140Z,13.83
2019-01-16T14:29:25.094Z,8.60
2019-01-16T14:31:57.720Z,7.60
2019-01-16T14:34:27.908Z,12.20
2019-01-16T14:37:06.944Z,6.10
2019-01-16T14:39:48.667Z,7.00
2019-01-16T14:42:34.908Z,7.43
2019-01-16T14:45:22.687Z,9.03
2019-01-16T14:47:55.599Z,8.70
2019-01-16T14:50:28.213Z,11.70
2019-01-16T14:53:01.056Z,8.07
2019-01-16T14:55:34.141Z,7.37
2019-01-16T14:58:10.003Z,9.43
2019-01-16T15:00:39.920Z,7.83
2019-01-16T15:03:27.671Z,8.47
2019-01-16T15:06:00.092Z,9.70
2019-01-16T15:08:39.067Z,9.83
2019-01-16T15:11:11.717Z,8.87
2019-01-16T15:13:57.620Z,11.20
2019-01-16T15:16:27.525Z,12.67
2019-01-16T15:19:13.481Z,11.30
2019-01-16T15:22:06.188Z,12.50
2019-01-16T15:24:32.848Z,10.87
2019-01-16T15:27:11.496Z,9.83
2019-01-16T15:29:41.399Z,13.53
2019-01-16T15:32:17.091Z,13.57
2019-01-16T15:34:49.939Z,10.87
2019-01-16T15:37:36.060Z,13.70
2019-01-16T15:40:09.263Z,10.83
2019-01-16T15:42:39.414Z,10.80
2019-01-16T15:45:18.486Z,11.83
2019-01-16T15:48:04.642Z,11.53
2019-01-16T15:50:34.616Z,10.20
2019-01-16T15:53:04.773Z,10.07
2019-01-16T15:55:46.471Z,12.63
2019-01-16T15:58:19.073Z,11.30
2019-01-16T16:00:49.071Z,17.43
2019-01-16T16:03:34.300Z,14.30
2019-01-16T16:06:16.091Z,10.20
2019-01-16T16:08:48.928Z,14.60
2019-01-16T16:11:24.954Z,14.33
2019-01-16T16:14:03.964Z,12.50
2019-01-16T16:16:33.888Z,13.33
2019-01-16T16:19:19.796Z,22.53
2019-01-16T16:22:01.974Z,12.33
2019-01-16T16:24:31.860Z,9.33
2019-01-16T16:27:04.439Z,12.07
2019-01-16T16:29:50.440Z,13.50
2019-01-16T16:32:20.326Z,15.77
2019-01-16T16:34:50.479Z,16.13
2019-01-16T16:37:20.407Z,16.07
2019-01-16T16:39:53.002Z,12.23
2019-01-16T16:42:39.010Z,12.60
2019-01-16T16:45:11.997Z,13.33
2019-01-16T16:47:54.011Z,15.63
2019-01-16T16:50:32.746Z,13.07
2019-01-16T16:53:02.719Z,13.40
2019-01-16T16:55:32.613Z,13.23
2019-01-16T16:58:08.475Z,14.17
2019-01-16T17:00:38.422Z,15.70
2019-01-16T17:03:08.376Z,13.50
2019-01-16T17:05:38.264Z,13.37
2019-01-16T17:08:08.421Z,13.03
2019-01-16T17:10:53.487Z,16.87
2019-01-16T17:13:23.418Z,16.53
2019-01-16T17:16:02.459Z,15.50
2019-01-16T17:18:48.620Z,14.40
2019-01-16T17:21:27.605Z,14.33
2019-01-16T17:24:12.429Z,11.00
2019-01-16T17:26:44.891Z,18.33
2019-01-16T17:29:30.901Z,16.33
2019-01-16T17:32:10.010Z,14.80
2019-01-16T17:34:51.815Z,19.70
2019-01-16T17:37:24.211Z,13.93
2019-01-16T17:40:03.080Z,14.83
2019-01-16T17:42:33.027Z,18.70
2019-01-16T17:45:09.575Z,22.10
2019-01-16T17:47:42.286Z,15.23
2019-01-16T17:50:26.751Z,13.53
2019-01-16T17:53:08.410Z,15.77
2019-01-16T17:55:53.379Z,16.60
2019-01-16T17:58:35.255Z,17.73
2019-01-16T18:01:05.154Z,15.63
2019-01-16T18:03:35.315Z,21.20
2019-01-16T18:06:05.233Z,14.20
2019-01-16T18:08:51.538Z,16.67
2019-01-16T18:11:27.480Z,12.67
2019-01-16T18:13:57.393Z,19.43
2019-01-16T18:16:27.295Z,19.37
2019-01-16T18:18:57.264Z,13.63
2019-01-16T18:21:27.451Z,17.83
2019-01-16T18:23:57.362Z,15.50
2019-01-16T18:26:33.183Z,16.70
2019-01-16T18:29:03.115Z,15.63
2019-01-16T18:31:33.025Z,16.80
2019-01-16T18:34:02.958Z,18.90
2019-01-16T18:36:32.928Z,14.50
2019-01-16T18:39:08.791Z,15.43
2019-01-16T18:41:38.690Z,14.33
2019-01-16T18:44:23.557Z,15.67
2019-01-16T18:46:59.367Z,15.90
2019-01-16T18:49:38.323Z,13.57
2019-01-16T18:52:08.296Z,14.07
2019-01-16T18:54:54.297Z,18.53
2019-01-16T18:57:30.356Z,18.10
2019-01-16T19:00:02.996Z,11.57
2019-01-16T19:02:50.729Z,15.20
2019-01-16T19:05:26.813Z,15.40
2019-01-16T19:08:12.710Z,19.67
2019-01-16T19:10:57.873Z,15.30
2019-01-16T19:13:30.618Z,22.37
2019-01-16T19:16:00.605Z,18.20
2019-01-16T19:18:48.575Z,16.00
2019-01-16T19:21:24.428Z,17.63
2019-01-16T19:23:57.289Z,19.07
2019-01-16T19:26:33.202Z,14.57
2019-01-16T19:29:12.321Z,20.27
2019-01-16T19:31:48.186Z,19.27
2019-01-16T19:34:18.084Z,20.23
2019-01-16T19:37:04.362Z,19.17
2019-01-16T19:39:50.860Z,20.83
2019-01-16T19:42:38.883Z,15.40
2019-01-16T19:45:11.243Z,12.97
2019-01-16T19:47:41.135Z,13.83
2019-01-16T19:50:15.592Z,17.80
2019-01-16T19:52:51.200Z,17.40
2019-01-16T19:55:27.203Z,15.13
2019-01-16T19:57:59.768Z,18.00
2019-01-16T20:00:35.462Z,16.43
2019-01-16T20:03:20.273Z,14.63
2019-01-16T20:05:50.305Z,14.53
2019-01-16T20:08:20.219Z,15.33
2019-01-16T20:11:06.461Z,15.07
2019-01-16T20:13:42.364Z,12.23
2019-01-16T20:16:12.288Z,12.87
2019-01-16T20:18:42.197Z,13.50
2019-01-16T20:21:27.372Z,16.63
2019-01-16T20:24:00.193Z,13.50
2019-01-16T20:26:39.027Z,14.67
2019-01-16T20:29:21.031Z,17.00
2019-01-16T20:31:53.913Z,13.77
2019-01-16T20:34:31.287Z,18.57
2019-01-16T20:37:01.259Z,13.23
2019-01-16T20:39:37.115Z,15.70
2019-01-16T20:42:07.025Z,12.97
2019-01-16T20:44:37.010Z,12.80
2019-01-16T20:47:22.642Z,12.00
2019-01-16T20:49:52.552Z,13.30
2019-01-16T20:52:37.522Z,15.43
2019-01-16T20:55:13.649Z,13.37
2019-01-16T20:57:59.574Z,12.23
2019-01-16T21:00:47.546Z,9.50
2019-01-16T21:03:26.502Z,14.57
2019-01-16T21:05:56.449Z,11.50
2019-01-16T21:08:26.606Z,11.53
2019-01-16T21:10:59.213Z,14.40
2019-01-16T21:13:34.560Z,12.60
2019-01-16T21:16:04.732Z,13.97
2019-01-16T21:18:40.491Z,13.00
2019-01-16T21:21:13.256Z,13.23
2019-01-16T21:23:43.167Z,14.33
2019-01-16T21:26:13.172Z,12.77
2019-01-16T21:28:48.897Z,12.53
2019-01-16T21:31:35.159Z,13.67
2019-01-16T21:34:21.465Z,15.87
2019-01-16T21:37:07.747Z,11.83
2019-01-16T21:39:40.653Z,10.93
2019-01-16T21:42:26.524Z,16.07
2019-01-16T21:45:07.859Z,12.67
2019-01-16T21:47:52.640Z,12.30
2019-01-16T21:50:25.379Z,13.43
2019-01-16T21:52:58.322Z,12.40
2019-01-16T21:55:34.294Z,10.90
2019-01-16T21:58:09.924Z,17.03
2019-01-16T22:00:55.784Z,12.97
2019-01-16T22:03:31.705Z,13.70
2019-01-16T22:06:17.674Z,12.37
2019-01-16T22:08:47.598Z,14.33
2019-01-16T22:11:35.511Z,16.23
2019-01-16T22:14:17.430Z,10.80
2019-01-16T22:16:50.043Z,15.00
2019-01-16T22:19:23.013Z,11.30
2019-01-16T22:21:55.728Z,13.87
2019-01-16T22:24:31.478Z,14.60
2019-01-16T22:27:01.368Z,14.13
2019-01-16T22:29:47.497Z,13.27
2019-01-16T22:32:17.438Z,14.20
2019-01-16T22:35:05.328Z,14.60
2019-01-16T22:37:35.241Z,13.77
2019-01-16T22:40:07.843Z,13.53
2019-01-16T22:42:46.823Z,11.13
2019-01-16T22:45:26.514Z,17.10
2019-01-16T22:48:12.380Z,12.03
2019-01-16T22:50:42.632Z,11.90
2019-01-16T22:53:12.598Z,12.57
2019-01-16T22:55:48.374Z,20.13
2019-01-16T22:58:24.082Z,33.10
2019-01-16T23:01:02.984Z,17.07
2019-01-16T23:03:39.063Z,13.53
2019-01-16T23:06:17.801Z,14.67
2019-01-16T23:08:47.719Z,14.37
2019-01-16T23:11:35.390Z,14.10
2019-01-16T23:14:21.120Z,17.10
2019-01-16T23:17:07.626Z,13.87
2019-01-16T23:19:53.924Z,15.17
2019-01-16T23:22:29.527Z,11.90
2019-01-16T23:24:59.507Z,11.93
2019-01-16T23:27:38.627Z,10.30
2019-01-16T23:30:16.377Z,8.70
2019-01-16T23:32:55.517Z,7.53
2019-01-16T23:35:31.427Z,11.57
2019-01-16T23:38:17.494Z,14.37
2019-01-16T23:41:02.462Z,10.20
2019-01-16T23:43:44.497Z,9.97
2019-01-16T23:46:30.537Z,9.13
2019-01-16T23:49:06.505Z,11.80
2019-01-16T23:51:36.422Z,8.70
2019-01-16T23:54:06.332Z,9.80
2019-01-16T23:56:52.537Z,7.37
2019-01-16T23:59:22.448Z,9.80
